Map

Track Data

SID SEASON NUMBER BASIN SUBBASIN NAME ISO_TIME NATURE LAT LON WMO_WIND WMO_PRES WMO_AGENCY TRACK_TYPE DIST2LAND LANDFALL IFLAG USA_AGENCY USA_ATCF_ID USA_LAT USA_LON USA_RECORD USA_STATUS USA_WIND USA_PRES USA_SSHS USA_R34_NE USA_R34_SE USA_R34_SW USA_R34_NW USA_R50_NE USA_R50_SE USA_R50_SW USA_R50_NW USA_R64_NE USA_R64_SE USA_R64_SW USA_R64_NW USA_POCI USA_ROCI USA_RMW USA_EYE TOKYO_LAT TOKYO_LON TOKYO_GRADE TOKYO_WIND TOKYO_PRES TOKYO_R50_DIR TOKYO_R50_LONG TOKYO_R50_SHORT TOKYO_R30_DIR TOKYO_R30_LONG TOKYO_R30_SHORT TOKYO_LAND CMA_LAT CMA_LON CMA_CAT CMA_WIND CMA_PRES HKO_LAT HKO_LON HKO_CAT HKO_WIND HKO_PRES NEWDELHI_LAT NEWDELHI_LON NEWDELHI_GRADE NEWDELHI_WIND NEWDELHI_PRES NEWDELHI_CI NEWDELHI_DP NEWDELHI_POCI REUNION_LAT REUNION_LON REUNION_TYPE REUNION_WIND REUNION_PRES REUNION_TNUM REUNION_CI REUNION_RMW REUNION_R34_NE REUNION_R34_SE REUNION_R34_SW REUNION_R34_NW REUNION_R50_NE REUNION_R50_SE REUNION_R50_SW REUNION_R50_NW REUNION_R64_NE REUNION_R64_SE REUNION_R64_SW REUNION_R64_NW BOM_LAT BOM_LON BOM_TYPE BOM_WIND BOM_PRES BOM_TNUM BOM_CI BOM_RMW BOM_R34_NE BOM_R34_SE BOM_R34_SW BOM_R34_NW BOM_R50_NE BOM_R50_SE BOM_R50_SW BOM_R50_NW BOM_R64_NE BOM_R64_SE BOM_R64_SW BOM_R64_NW BOM_ROCI BOM_POCI BOM_EYE BOM_POS_METHOD BOM_PRES_METHOD NADI_LAT NADI_LON NADI_CAT NADI_WIND NADI_PRES WELLINGTON_LAT WELLINGTON_LON WELLINGTON_WIND WELLINGTON_PRES DS824_LAT DS824_LON DS824_STAGE DS824_WIND DS824_PRES TD9636_LAT TD9636_LON TD9636_STAGE TD9636_WIND TD9636_PRES TD9635_LAT TD9635_LON TD9635_WIND TD9635_PRES TD9635_ROCI NEUMANN_LAT NEUMANN_LON NEUMANN_CLASS NEUMANN_WIND NEUMANN_PRES MLC_LAT MLC_LON MLC_CLASS MLC_WIND MLC_PRES USA_GUST BOM_GUST BOM_GUST_PER REUNION_GUST REUNION_GUST_PER USA_SEAHGT USA_SEARAD_NE USA_SEARAD_SE USA_SEARAD_SW USA_SEARAD_NW STORM_SPEED STORM_DIR
2020248N12341 2020 66 NA NA PAULETTE 2020-09-03 12:00:00 NR 11.5000 -18.6000 PROVISIONAL 220 220 O_____________ nhc_working_bt AL172020 11.5000 -18.6000 DB 15 -3 15 291
2020248N12341 2020 66 NA NA PAULETTE 2020-09-03 15:00:00 NR 11.7626 -19.3123 PROVISIONAL 280 280 P_____________ AL172020 11.7626 -19.3123 DB 15 -3 16 289
2020248N12341 2020 66 NA NA PAULETTE 2020-09-03 18:00:00 NR 12.0000 -20.1000 PROVISIONAL 361 361 O_____________ nhc_working_bt AL172020 12.0000 -20.1000 DB 15 -3 17 285
2020248N12341 2020 66 NA NA PAULETTE 2020-09-03 21:00:00 NR 12.2001 -21.0002 PROVISIONAL 457 457 P_____________ AL172020 12.2001 -21.0002 DB 15 -3 18 283
2020248N12341 2020 66 NA NA PAULETTE 2020-09-04 00:00:00 NR 12.4000 -21.9000 PROVISIONAL 541 541 O_____________ nhc_working_bt AL172020 12.4000 -21.9000 DB 15 -3 17 284
2020248N12341 2020 66 NA NA PAULETTE 2020-09-04 03:00:00 NR 12.6198 -22.6952 PROVISIONAL 609 609 P_____________ AL172020 12.6198 -22.6952 DB 15 -3 15 289
2020248N12341 2020 66 NA NA PAULETTE 2020-09-04 06:00:00 NR 12.9000 -23.4000 PROVISIONAL 668 668 O_____________ nhc_working_bt AL172020 12.9000 -23.4000 DB 15 -3 15 294
2020248N12341 2020 66 NA NA PAULETTE 2020-09-04 09:00:00 NR 13.2250 -24.0676 PROVISIONAL 732 729 P_____________ AL172020 13.2250 -24.0676 DB 20 -3 14 304
2020248N12341 2020 66 NA NA PAULETTE 2020-09-04 12:00:00 NR 13.7000 -24.6000 PROVISIONAL 773 772 O_____________ nhc_working_bt AL172020 13.7000 -24.6000 DB 25 -3 1011 180 50 14 328
2020248N12341 2020 66 NA NA PAULETTE 2020-09-04 15:00:00 NR 14.4265 -24.8411 PROVISIONAL 786 786 P_____________ AL172020 14.4265 -24.8411 DB 25 -3 1011 180 50 16 339
2020248N12341 2020 66 NA NA PAULETTE 2020-09-04 18:00:00 NR 15.2000 -25.2000 PROVISIONAL 829 829 O_____________ nhc_working_bt AL172020 15.2000 -25.2000 DB 25 1009 -3 1011 180 50 19 319
2020248N12341 2020 66 NA NA PAULETTE 2020-09-04 21:00:00 NR 15.8258 -26.1092 PROVISIONAL 931 931 P_____________ AL172020 15.8258 -26.1092 DB 25 1009 -3 1011 180 50 22 300
2020248N12341 2020 66 NA NA PAULETTE 2020-09-05 00:00:00 NR 16.3000 -27.2000 PROVISIONAL 1054 1054 O_____________ nhc_working_bt AL172020 16.3000 -27.2000 DB 25 1009 -3 1011 180 50 21 292
2020248N12341 2020 66 NA NA PAULETTE 2020-09-05 03:00:00 NR 16.5792 -28.1012 PROVISIONAL 1154 1154 P_____________ AL172020 16.5792 -28.1012 DB 25 1009 -3 1011 180 50 18 286
2020248N12341 2020 66 NA NA PAULETTE 2020-09-05 06:00:00 NR 16.8000 -29.0000 PROVISIONAL 1253 1253 O_____________ nhc_working_bt AL172020 16.8000 -29.0000 DB 25 1009 -3 1011 180 50 19 287
2020248N12341 2020 66 NA NA PAULETTE 2020-09-05 09:00:00 NR 17.1266 -29.9480 PROVISIONAL 1353 1353 P_____________ AL172020 17.1266 -29.9480 DB 25 1009 -3 1011 180 50 20 290
2020248N12341 2020 66 NA NA PAULETTE 2020-09-05 12:00:00 NR 17.5000 -31.0000 PROVISIONAL 1475 1475 O_____________ nhc_working_bt AL172020 17.5000 -31.0000 DB 25 1009 -3 1011 180 50 24 291
2020248N12341 2020 66 NA NA PAULETTE 2020-09-05 15:00:00 NR 17.9608 -32.2636 PROVISIONAL 1621 1621 P_____________ AL172020 17.9608 -32.2636 DB 25 1009 -3 1011 180 50 25 289
2020248N12341 2020 66 NA NA PAULETTE 2020-09-05 18:00:00 NR 18.3000 -33.5000 PROVISIONAL 1740 1740 O_____________ nhc_working_bt AL172020 18.3000 -33.5000 DB 25 1009 -3 1011 180 50 21 280
2020248N12341 2020 66 NA NA PAULETTE 2020-09-05 21:00:00 NR 18.3226 -34.3860 PROVISIONAL 1833 1833 P_____________ AL172020 18.3226 -34.3860 DB 25 1009 -3 1011 180 50 17 267
2020248N12341 2020 66 NA NA PAULETTE 2020-09-06 00:00:00 NR 18.2000 -35.3000 PROVISIONAL 1928 1928 O_____________ nhc_working_bt AL172020 18.2000 -35.3000 DB 25 1009 -3 1011 180 50 22 267
2020248N12341 2020 66 NA NA PAULETTE 2020-09-06 03:00:00 NR 18.1919 -36.6715 PROVISIONAL 2073 2073 P_____________ AL172020 18.1919 -36.6715 DB 27 1008 -3 1011 180 50 26 266
2020248N12341 2020 66 NA NA PAULETTE 2020-09-06 06:00:00 NR 18.0000 -38.0000 PROVISIONAL 2109 2002 O_____________ nhc_working_bt AL172020 18.0000 -38.0000 DB 30 1007 -3 1011 180 50 23 248
2020248N12341 2020 66 NA NA PAULETTE 2020-09-06 09:00:00 NR 17.3337 -38.8712 PROVISIONAL 1986 1894 P_____________ AL172020 17.3337 -38.8712 DB 30 1006 -3 1010 180 50 19 228
2020248N12341 2020 66 NA NA PAULETTE 2020-09-06 12:00:00 NR 16.7000 -39.5000 PROVISIONAL 1894 1842 O_____________ nhc_working_bt AL172020 16.7000 -39.5000 DB 30 1006 -3 1010 180 50 40 14 238
2020248N12341 2020 66 NA NA PAULETTE 2020-09-06 15:00:00 NR 16.5873 -40.1090 PROVISIONAL 1842 1814 P_____________ AL172020 16.5873 -40.1090 DB 30 1006 -3 1010 180 50 11 270
2020248N12341 2020 66 NA NA PAULETTE 2020-09-06 18:00:00 DS 16.7000 -40.6000 PROVISIONAL 1814 1795 O_____________ nhc_working_bt AL172020 16.7000 -40.6000 LO 30 1006 -3 1010 180 50 40 9 284
2020248N12341 2020 66 NA NA PAULETTE 2020-09-06 21:00:00 DS 16.7923 -40.9949 PROVISIONAL 1795 1783 P_____________ AL172020 16.7923 -40.9949 LO 30 1006 -3 1010 180 50 7 289
2020248N12341 2020 66 NA NA PAULETTE 2020-09-07 00:00:00 TS 16.9333 -41.3000 PROVISIONAL 1783 1772 O_____________ nhc_working_bt AL172020 16.9000 -41.3000 TD 30 1006 -1 1010 180 50 40 7 292
2020248N12341 2020 66 NA NA PAULETTE 2020-09-07 03:00:00 TS 17.0476 -41.6462 PROVISIONAL 1772 1762 P_____________ AL172020 16.9575 -41.5800 TD 30 1006 -1 1010 180 50 6 288
2020248N12341 2020 66 NA NA PAULETTE 2020-09-07 06:00:00 TS 17.1200 -41.9200 PROVISIONAL 1762 1756 O_____________ nhc_working_bt AL172020 17.0000 -41.8000 TD 30 1006 -1 1010 180 50 40 12 150 150 4 280
2020248N12341 2020 66 NA NA PAULETTE 2020-09-07 09:00:00 TS 17.1141 -42.0492 PROVISIONAL 1756 1749 P_____________ AL172020 17.0425 -41.9725 TD 32 1005 -1 1010 180 50 12 150 150 2 263
2020248N12341 2020 66 NA NA PAULETTE 2020-09-07 12:00:00 TS 17.1000 -42.1000 PROVISIONAL 1749 1743 O_____________ nhc_working_bt AL172020 17.1000 -42.1000 TS 35 1005 0 60 1010 180 50 45 12 150 150 2 293
2020248N12341 2020 66 NA NA PAULETTE 2020-09-07 15:00:00 TS 17.1750 -42.2050 PROVISIONAL 1752 1746 P_____________ AL172020 17.1850 -42.2150 TS 35 1005 0 60 1010 180 50 12 135 135 3 316
2020248N12341 2020 66 NA NA PAULETTE 2020-09-07 18:00:00 TS 17.3000 -42.3000 PROVISIONAL 1755 1755 O_____________ nhc_working_bt AL172020 17.3000 -42.3000 TS 35 1005 0 60 1010 180 50 45 12 120 120 3 333
2020248N12341 2020 66 NA NA PAULETTE 2020-09-07 21:00:00 TS 17.4425 -42.3500 PROVISIONAL 1758 1758 P_____________ AL172020 17.4425 -42.3500 TS 37 1004 0 65 1009 180 50 12 120 120 3 343
2020248N12341 2020 66 NA NA PAULETTE 2020-09-08 00:00:00 TS 17.6000 -42.4000 PROVISIONAL 1777 1777 O_____________ nhc_working_bt AL172020 17.6000 -42.4000 TS 40 1004 0 70 50 1009 180 50 50 12 120 120 3 339
2020248N12341 2020 66 NA NA PAULETTE 2020-09-08 03:00:00 TS 17.7500 -42.4750 PROVISIONAL 1779 1779 P_____________ AL172020 17.7500 -42.4701 TS 42 1002 0 80 60 1009 180 50 12 135 135 4 328
2020248N12341 2020 66 NA NA PAULETTE 2020-09-08 06:00:00 TS 17.9000 -42.6000 PROVISIONAL 1790 1786 O_____________ nhc_working_bt AL172020 17.9000 -42.6000 TS 45 1000 0 90 70 70 1009 180 50 55 12 150 150 4 318
2020248N12341 2020 66 NA NA PAULETTE 2020-09-08 09:00:00 TS 18.0499 -42.7643 PROVISIONAL 1786 1786 P_____________ AL172020 18.0500 -42.8125 TS 50 997 0 90 70 70 20 15 1009 180 45 12 150 150 5 306
2020248N12341 2020 66 NA NA PAULETTE 2020-09-08 12:00:00 TS 18.2000 -43.0333 PROVISIONAL 1791 1775 O_____________ nhc_working_bt AL172020 18.2000 -43.1000 TS 55 995 0 90 70 20 70 40 30 1010 180 40 65 12 150 150 7 293
2020248N12341 2020 66 NA NA PAULETTE 2020-09-08 15:00:00 TS 18.3403 -43.4708 PROVISIONAL 1769 1760 P_____________ AL172020 18.3425 -43.4351 TS 52 996 0 90 70 20 70 40 30 1010 180 40 12 150 150 9 289
2020248N12341 2020 66 NA NA PAULETTE 2020-09-08 18:00:00 TS 18.5000 -43.9333 PROVISIONAL 1763 1755 O_____________ nhc_working_bt AL172020 18.5000 -43.8000 TS 50 997 0 90 70 20 70 40 30 1010 180 40 65 12 150 150 8 298
2020248N12341 2020 66 NA NA PAULETTE 2020-09-08 21:00:00 TS 18.7265 -44.2508 PROVISIONAL 1759 1759 P_____________ AL172020 18.7074 -44.1499 TS 50 997 0 90 70 20 70 40 1010 180 45 12 180 180 7 307
2020248N12341 2020 66 NA NA PAULETTE 2020-09-09 00:00:00 TS 18.9333 -44.5333 PROVISIONAL 1768 1761 O_____________ nhc_working_bt AL172020 18.9000 -44.5000 TS 50 997 0 90 70 20 70 40 1010 180 50 60 12 210 60 90 210 6 297
2020248N12341 2020 66 NA NA PAULETTE 2020-09-09 03:00:00 TS 19.0141 -44.8520 PROVISIONAL 1756 1751 P_____________ AL172020 18.9999 -44.8428 TS 50 997 0 120 65 25 100 45 1010 180 50 7 285
2020248N12341 2020 66 NA NA PAULETTE 2020-09-09 06:00:00 TS 19.1000 -45.2000 PROVISIONAL 1751 1746 O_____________ nhc_working_bt AL172020 19.1000 -45.2000 TS 50 997 0 150 60 30 130 50 50 1010 180 50 8 292
2020248N12341 2020 66 NA NA PAULETTE 2020-09-09 09:00:00 TS 19.3008 -45.5850 PROVISIONAL 1751 1746 P_____________ AL172020 19.2850 -45.5925 TS 50 996 0 150 60 30 130 50 50 1010 210 55 9 302
2020248N12341 2020 66 NA NA PAULETTE 2020-09-09 12:00:00 TS 19.5667 -46.0000 PROVISIONAL 1762 1757 O_____________ nhc_working_bt AL172020 19.5000 -46.0000 TS 50 996 0 150 60 30 130 50 50 1011 240 60 60 12 240 75 105 210 10 305
2020248N12341 2020 66 NA NA PAULETTE 2020-09-09 15:00:00 TS 19.8742 -46.4382 PROVISIONAL 1775 1771 P_____________ AL172020 19.6924 -46.4002 TS 50 996 0 180 75 45 155 50 65 1011 210 60 12 240 67 105 225 10 306
2020248N12341 2020 66 NA NA PAULETTE 2020-09-09 18:00:00 TS 20.1667 -46.8667 PROVISIONAL 1784 1780 O_____________ nhc_working_bt AL172020 19.9000 -46.8000 TS 50 996 0 210 90 60 180 50 80 1011 180 60 60 12 240 60 105 240 9 304
2020248N12341 2020 66 NA NA PAULETTE 2020-09-09 21:00:00 TS 20.3748 -47.2360 PROVISIONAL 1790 1781 P_____________ AL172020 20.1500 -47.2075 TS 50 996 0 195 75 60 175 70 70 1011 180 60 12 240 60 112 225 8 298
2020248N12341 2020 66 NA NA PAULETTE 2020-09-10 00:00:00 TS 20.5333 -47.6000 PROVISIONAL 1783 1776 O_____________ nhc_working_bt AL172020 20.4000 -47.6000 TS 50 996 0 180 60 60 170 90 60 1011 180 60 60 12 240 60 120 210 8 290
2020248N12341 2020 66 NA NA PAULETTE 2020-09-10 03:00:00 TS 20.6568 -48.0468 PROVISIONAL 1784 1758 P_____________ AL172020 20.5999 -47.9652 TS 50 996 0 180 60 60 170 90 60 1011 180 60 12 270 75 150 255 8 289
2020248N12341 2020 66 NA NA PAULETTE 2020-09-10 06:00:00 TS 20.8000 -48.4333 PROVISIONAL 1758 1748 O_____________ nhc_working_bt AL172020 20.8000 -48.3000 TS 50 996 0 180 60 60 170 90 60 1011 180 60 60 12 300 90 180 300 6 306
2020248N12341 2020 66 NA NA PAULETTE 2020-09-10 09:00:00 TS 21.0272 -48.6004 PROVISIONAL 1755 1754 P_____________ AL172020 21.0424 -48.6001 TS 47 997 0 180 60 60 170 1011 180 60 12 300 90 195 315 6 328
2020248N12341 2020 66 NA NA PAULETTE 2020-09-10 12:00:00 TS 21.3000 -48.7667 PROVISIONAL 1761 1752 O_____________ nhc_working_bt AL172020 21.3000 -48.9000 TS 45 998 0 180 60 60 170 1011 180 60 55 12 300 90 210 330 8 317
2020248N12341 2020 66 NA NA PAULETTE 2020-09-10 15:00:00 TS 21.5835 -49.1482 PROVISIONAL 1759 1712 P_____________ AL172020 21.5499 -49.2351 TS 45 997 0 180 65 60 170 1010 180 60 12 315 105 210 345 10 306
2020248N12341 2020 66 NA NA PAULETTE 2020-09-10 18:00:00 TS 21.8667 -49.6000 PROVISIONAL 1714 1678 O_____________ nhc_working_bt AL172020 21.8000 -49.6000 TS 45 997 0 180 70 60 170 1010 180 60 55 12 330 120 210 360 10 305
2020248N12341 2020 66 NA NA PAULETTE 2020-09-10 21:00:00 TS 22.1341 -50.0051 PROVISIONAL 1678 1642 P_____________ AL172020 22.0575 -50.0000 TS 50 994 0 175 70 60 170 20 20 1010 180 50 12 330 120 210 375 9 304
2020248N12341 2020 66 NA NA PAULETTE 2020-09-11 00:00:00 TS 22.3667 -50.4000 PROVISIONAL 1644 1607 O_____________ nhc_working_bt AL172020 22.3000 -50.4000 TS 55 991 0 170 70 60 170 40 40 1010 180 40 65 12 330 120 210 390 8 298
2020248N12341 2020 66 NA NA PAULETTE 2020-09-11 03:00:00 TS 22.5283 -50.7937 PROVISIONAL 1607 1580 P_____________ AL172020 22.4847 -50.7355 TS 55 991 0 175 70 60 170 45 45 1010 180 40 12 330 135 225 405 8 295
2020248N12341 2020 66 NA NA PAULETTE 2020-09-11 06:00:00 TS 22.7000 -51.1667 PROVISIONAL 1573 1556 O_____________ nhc_working_bt AL172020 22.7000 -51.1000 TS 55 991 0 180 70 60 170 50 50 1010 180 40 65 12 330 150 240 420 7 304
2020248N12341 2020 66 NA NA PAULETTE 2020-09-11 09:00:00 TS 22.9378 -51.4557 PROVISIONAL 1549 1530 P_____________ AL172020 23.0200 -51.5701 TS 55 990 0 180 70 60 170 50 50 1009 195 40 12 330 150 255 420 8 313
2020248N12341 2020 66 NA NA PAULETTE 2020-09-11 12:00:00 TS 23.2667 -51.8333 PROVISIONAL 1533 1487 O_____________ nhc_working_bt AL172020 23.4000 -52.1000 TS 55 990 0 180 70 60 170 50 50 1009 210 40 65 12 330 150 270 420 12 308
2020248N12341 2020 66 NA NA PAULETTE 2020-09-11 15:00:00 TS 23.6889 -52.4839 PROVISIONAL 1481 1437 P_____________ AL172020 23.7624 -52.6431 TS 55 989 0 180 70 60 170 50 50 1008 210 40 12 300 135 285 420 16 307
2020248N12341 2020 66 NA NA PAULETTE 2020-09-11 18:00:00 TS 24.2000 -53.2000 PROVISIONAL 1437 1415 O_____________ nhc_working_bt AL172020 24.2000 -53.2000 TS 55 989 0 180 70 60 170 50 50 1008 210 40 65 12 270 120 300 420 16 313
2020248N12341 2020 66 NA NA PAULETTE 2020-09-11 21:00:00 TS 24.7727 -53.7581 PROVISIONAL 1413 1396 P_____________ AL172020 24.7770 -53.7279 TS 57 988 0 180 70 60 170 50 50 1008 210 40 12 255 120 285 375 15 319
2020248N12341 2020 66 NA NA PAULETTE 2020-09-12 00:00:00 TS 25.3667 -54.3000 PROVISIONAL 1402 1383 O_____________ nhc_working_bt AL172020 25.4000 -54.3000 TS 60 987 0 180 70 60 170 50 50 1009 210 40 65 12 240 120 270 330 16 317
2020248N12341 2020 66 NA NA PAULETTE 2020-09-12 03:00:00 TS 25.9326 -54.9357 PROVISIONAL 1383 1368 P_____________ AL172020 25.9803 -55.0072 TS 60 987 0 180 75 60 145 55 45 1009 210 40 12 255 120 285 315 16 313
2020248N12341 2020 66 NA NA PAULETTE 2020-09-12 06:00:00 TS 26.4333 -55.5667 PROVISIONAL 1361 1352 O_____________ nhc_working_bt AL172020 26.5000 -55.7000 TS 60 987 0 180 80 60 120 60 20 20 40 1009 210 40 75 12 270 120 300 300 14 310
2020248N12341 2020 66 NA NA PAULETTE 2020-09-12 09:00:00 TS 26.8094 -56.1013 PROVISIONAL 1352 1339 P_____________ AL172020 26.9218 -56.2162 TS 60 987 0 180 80 60 120 60 20 20 40 1009 225 40 12 285 120 300 285 12 308
2020248N12341 2020 66 NA NA PAULETTE 2020-09-12 12:00:00 TS 27.1667 -56.6333 PROVISIONAL 1347 1334 O_____________ nhc_working_bt AL172020 27.3000 -56.7000 TS 60 987 0 180 80 60 120 60 20 20 40 1010 240 40 75 12 300 120 300 270 13 309
2020248N12341 2020 66 NA NA PAULETTE 2020-09-12 15:00:00 TS 27.6508 -57.2562 PROVISIONAL 1341 1332 P_____________ AL172020 27.7224 -57.2849 TS 60 987 0 175 90 55 120 50 20 20 40 1010 240 40 12 285 135 285 255 15 310
2020248N12341 2020 66 NA NA PAULETTE 2020-09-12 18:00:00 TS 28.1000 -57.9000 PROVISIONAL 1338 1327 O_____________ nhc_working_bt AL172020 28.1000 -57.9000 TS 60 987 0 170 100 50 120 40 20 20 40 1010 240 40 75 12 270 150 270 240 13 303
2020248N12341 2020 66 NA NA PAULETTE 2020-09-12 21:00:00 TS 28.3822 -58.5133 PROVISIONAL 1330 1317 P_____________ AL172020 28.3723 -58.5081 TS 62 984 0 170 100 50 120 35 25 20 40 1010 240 30 12 255 135 225 225 12 295
2020248N12341 2020 66 NA NA PAULETTE 2020-09-13 00:00:00 TS 28.6000 -59.1000 PROVISIONAL 1317 1312 O_____________ nhc_working_bt AL172020 28.6000 -59.1000 HU 65 981 1 170 100 50 120 30 30 20 40 20 20 20 1010 240 20 80 12 240 120 180 210 11 295
2020248N12341 2020 66 NA NA PAULETTE 2020-09-13 03:00:00 TS 28.8496 -59.6504 PROVISIONAL 1307 1307 P_____________ AL172020 28.8496 -59.6504 HU 65 981 1 170 100 65 145 30 30 25 40 20 20 20 1010 220 20 12 240 120 180 210 11 297
2020248N12341 2020 66 NA NA PAULETTE 2020-09-13 06:00:00 TS 29.1000 -60.2000 PROVISIONAL 1315 1309 O_____________ nhc_working_bt AL172020 29.1000 -60.2000 HU 65 981 1 170 100 80 170 30 30 30 40 20 20 20 1010 200 20 80 12 240 120 180 210 11 296
2020248N12341 2020 66 NA NA PAULETTE 2020-09-13 09:00:00 TS 29.3423 -60.7929 PROVISIONAL 1311 1311 P_____________ AL172020 29.3423 -60.7929 HU 67 978 1 170 100 80 170 55 30 30 60 35 20 25 1010 200 20 12 285 105 180 255 12 296
2020248N12341 2020 66 NA NA PAULETTE 2020-09-13 12:00:00 TS 29.6000 -61.4000 PROVISIONAL 1321 1318 O_____________ nhc_working_bt AL172020 29.6000 -61.4000 HU 70 976 1 170 100 80 170 80 30 30 80 50 20 30 1010 200 20 85 12 330 90 180 300 12 297
2020248N12341 2020 66 NA NA PAULETTE 2020-09-13 15:00:00 TS 29.8849 -62.0152 PROVISIONAL 1335 1332 P_____________ AL172020 29.8849 -62.0152 HU 72 975 1 160 100 80 160 80 40 35 80 50 20 30 1010 200 20 12 330 105 195 315 12 300
2020248N12341 2020 66 NA NA PAULETTE 2020-09-13 18:00:00 TS 30.2000 -62.6000 PROVISIONAL 1351 1293 O_____________ nhc_working_bt AL172020 30.2000 -62.6000 HU 75 974 1 150 100 80 150 80 50 40 80 50 20 30 1010 200 20 90 12 330 120 210 330 12 304
2020248N12341 2020 66 NA NA PAULETTE 2020-09-13 21:00:00 TS 30.5273 -63.1304 PROVISIONAL 1293 1229 P_____________ AL172020 30.5273 -63.1304 HU 75 974 1 150 100 80 150 80 50 35 80 45 20 30 1011 210 22 12 345 150 225 315 11 309
2020248N12341 2020 66 NA NA PAULETTE 2020-09-14 00:00:00 TS 30.9000 -63.6000 PROVISIONAL 1229 1174 O_____________ nhc_working_bt AL172020 30.9000 -63.6000 HU 75 974 1 150 100 80 150 80 50 30 80 40 20 30 1012 220 25 90 12 360 180 240 300 11 316
2020248N12341 2020 66 NA NA PAULETTE 2020-09-14 03:00:00 TS 31.3199 -64.0377 PROVISIONAL 1174 1115 P_____________ AL172020 31.3199 -64.0377 HU 77 973 1 150 100 80 150 80 50 30 80 40 20 30 1012 220 22 12 360 180 240 300 11 323
2020248N12341 2020 66 NA NA PAULETTE 2020-09-14 06:00:00 TS 31.8000 -64.4000 PROVISIONAL 1115 1066 O_____________ nhc_working_bt AL172020 31.8000 -64.4000 HU 80 973 1 150 100 80 150 80 50 30 80 40 20 30 1012 220 20 100 12 360 180 240 300 12 329
2020248N12341 2020 66 NA NA PAULETTE 2020-09-14 09:00:00 TS 32.3424 -64.7467 PROVISIONAL 1066 1022 P_____________ AL172020 32.3424 -64.7467 HU 82 971 1 150 100 80 150 80 50 30 80 40 20 30 1012 220 20 12 360 195 255 300 12 339
2020248N12341 2020 66 NA NA PAULETTE 2020-09-14 12:00:00 TS 32.9000 -64.9000 PROVISIONAL 1022 1011 O_____________ nhc_working_bt AL172020 32.9000 -64.9000 HU 85 970 2 150 100 80 150 80 50 30 80 40 20 30 1012 220 20 105 12 360 210 270 300 11 0
2020248N12341 2020 66 NA NA PAULETTE 2020-09-14 15:00:00 TS 33.3922 -64.7699 PROVISIONAL 1012 997 P_____________ AL172020 33.3922 -64.7699 HU 87 967 2 150 100 80 150 80 50 30 80 40 20 30 1012 220 20 12 360 255 285 300 11 23
2020248N12341 2020 66 NA NA PAULETTE 2020-09-14 18:00:00 TS 33.9000 -64.4000 PROVISIONAL 997 956 O_____________ nhc_working_bt AL172020 33.9000 -64.4000 HU 90 965 2 150 100 80 150 80 50 30 80 40 20 30 1012 220 20 110 12 360 300 300 300 13 33
2020248N12341 2020 66 NA NA PAULETTE 2020-09-14 21:00:00 TS 34.4848 -63.9246 PROVISIONAL 961 936 P_____________ AL172020 34.4850 -63.9100 HU 90 965 2 160 120 80 135 80 65 45 75 45 25 35 1012 220 20 12 360 300 300 330 15 37
2020248N12341 2020 66 NA NA PAULETTE 2020-09-15 00:00:00 TS 35.1000 -63.3000 PROVISIONAL 936 895 O_____________ nhc_working_bt AL172020 35.1000 -63.3000 HU 90 965 2 170 140 80 120 80 80 60 70 50 30 40 1012 220 20 110 12 360 300 300 360 16 41
2020248N12341 2020 66 NA NA PAULETTE 2020-09-15 03:00:00 TS 35.6834 -62.6521 PROVISIONAL 895 851 P_____________ AL172020 35.6826 -62.7661 HU 90 965 2 160 170 105 120 80 90 65 70 50 40 45 1012 220 20 12 360 300 300 360 17 45
2020248N12341 2020 66 NA NA PAULETTE 2020-09-15 06:00:00 TS 36.3000 -61.8000 PROVISIONAL 854 821 O_____________ nhc_working_bt AL172020 36.3000 -62.0000 HU 90 965 2 150 200 130 120 80 100 70 70 50 50 50 50 1012 220 20 110 12 360 300 300 360 21 51
2020248N12341 2020 66 NA NA PAULETTE 2020-09-15 09:00:00 TS 37.0075 -60.6482 PROVISIONAL 825 812 P_____________ AL172020 37.0087 -60.7642 HU 90 965 2 150 200 130 120 80 100 70 70 50 50 50 50 1012 220 20 12 360 285 300 390 24 55
2020248N12341 2020 66 NA NA PAULETTE 2020-09-15 12:00:00 TS 37.7000 -59.3000 PROVISIONAL 818 817 O_____________ nhc_working_bt AL172020 37.7000 -59.3000 HU 90 965 2 150 200 130 120 80 100 70 70 50 50 50 50 1012 220 20 110 12 360 270 300 420 25 60
2020248N12341 2020 66 NA NA PAULETTE 2020-09-15 15:00:00 TS 38.2649 -57.8974 PROVISIONAL 811 802 P_____________ AL172020 38.2643 -57.8820 HU 87 967 2 155 200 130 180 80 105 65 75 50 50 50 50 1012 220 20 12 330 285 330 450 25 63
2020248N12341 2020 66 NA NA PAULETTE 2020-09-15 18:00:00 TS 38.8000 -56.5000 PROVISIONAL 806 800 O_____________ nhc_working_bt AL172020 38.8000 -56.5000 HU 85 970 2 160 200 130 240 80 110 60 80 50 50 50 50 1012 220 20 105 12 300 300 360 480 23 61
2020248N12341 2020 66 NA NA PAULETTE 2020-09-15 21:00:00 TS 39.3886 -55.2763 PROVISIONAL 800 734 P_____________ AL172020 39.3886 -55.2763 HU 85 968 2 160 200 130 240 80 110 60 80 50 50 50 50 1013 235 30 12 285 330 390 480 23 58
2020248N12341 2020 66 NA NA PAULETTE 2020-09-16 00:00:00 TS 40.0000 -54.0000 PROVISIONAL 734 678 O_____________ nhc_working_bt AL172020 40.0000 -54.0000 HU 85 966 2 160 200 130 240 80 110 60 80 50 50 50 50 1014 250 40 105 12 270 360 420 480 24 61
2020248N12341 2020 66 NA NA PAULETTE 2020-09-16 03:00:00 TS 40.5826 -52.5004 PROVISIONAL 669 627 P_____________ AL172020 40.5826 -52.5004 HU 85 966 2 160 210 165 230 85 120 90 90 50 60 55 55 1013 250 40 12 255 330 390 480 27 64
2020248N12341 2020 66 NA NA PAULETTE 2020-09-16 06:00:00 TS 41.2000 -50.8000 PROVISIONAL 630 617 O_____________ nhc_working_bt AL172020 41.2000 -50.8000 HU 85 966 2 160 221 200 221 90 130 120 100 50 70 60 60 1012 250 40 105 12 240 300 360 480 30 64
2020248N12341 2020 66 NA NA PAULETTE 2020-09-16 09:00:00 TS 41.8838 -48.8849 PROVISIONAL 623 623 P_____________ AL172020 41.8623 -48.8915 HU 80 969 1 160 221 200 221 90 130 120 100 50 70 60 60 1012 250 40 12 270 300 450 450 32 64
2020248N12341 2020 66 NA NA PAULETTE 2020-09-16 12:00:00 ET 42.6000 -46.9000 PROVISIONAL 666 666 O_____________ nhc_working_bt AL172020 42.6000 -46.9000 EX 75 973 -4 160 221 200 221 90 130 120 100 50 70 60 60 1012 250 40 90 12 300 300 540 420 32 63
2020248N12341 2020 66 NA NA PAULETTE 2020-09-16 15:00:00 ET 43.3187 -45.0261 PROVISIONAL 736 736 P_____________ AL172020 43.4383 -45.0048 EX 72 973 -4 170 225 210 220 90 130 125 105 50 60 65 65 1012 250 40 30 62
2020248N12341 2020 66 NA NA PAULETTE 2020-09-16 18:00:00 ET 44.0183 -43.2195 PROVISIONAL 822 822 O_____________ nhc_working_bt AL172020 44.3000 -43.1000 EX 70 974 -4 180 230 220 220 90 130 130 110 50 50 70 70 1012 250 40 29 63
2020248N12341 2020 66 NA NA PAULETTE 2020-09-16 21:00:00 ET 44.6673 -41.4029 PROVISIONAL 913 913 P_____________ AL172020 45.0894 -41.0103 EX 67 974 -4 190 235 230 220 85 125 140 115 80 80 1012 250 40 28 64
2020248N12341 2020 66 NA NA PAULETTE 2020-09-17 00:00:00 ET 45.2483 -39.7303 PROVISIONAL 1017 1017 O_____________ nhc_working_bt AL172020 45.8000 -39.1000 EX 65 975 -4 200 240 240 220 80 120 150 120 90 90 1012 250 40 25 63
2020248N12341 2020 66 NA NA PAULETTE 2020-09-17 03:00:00 ET 45.7901 -38.2638 PROVISIONAL 1101 1101 P_____________ AL172020 46.5078 -37.6488 EX 65 975 -4 200 240 240 220 80 120 150 120 90 90 1012 250 40 21 64
2020248N12341 2020 66 NA NA PAULETTE 2020-09-17 06:00:00 ET 46.2002 -36.9907 PROVISIONAL 1188 1188 O_____________ nhc_working_bt AL172020 47.0000 -36.5000 EX 65 975 -4 200 240 240 220 80 120 150 120 90 90 1012 250 40 18 69
2020248N12341 2020 66 NA NA PAULETTE 2020-09-17 09:00:00 ET 46.4366 -35.8000 PROVISIONAL 1273 1273 P_____________ AL172020 47.1186 -35.4128 EX 60 975 -4 195 210 255 230 105 140 125 1012 250 40 16 78
2020248N12341 2020 66 NA NA PAULETTE 2020-09-17 12:00:00 ET 46.5155 -34.7711 PROVISIONAL 1345 1345 O_____________ nhc_working_bt AL172020 47.0000 -34.5000 EX 55 975 -4 190 180 270 240 90 130 130 1012 250 40 13 86
2020248N12341 2020 66 NA NA PAULETTE 2020-09-17 15:00:00 ET 46.5211 -33.8482 PROVISIONAL 1420 1420 P_____________ AL172020 46.8441 -33.6897 EX 52 978 -4 175 170 260 235 125 1012 250 40 12 96
2020248N12341 2020 66 NA NA PAULETTE 2020-09-17 18:00:00 ET 46.3991 -33.0808 PROVISIONAL 1474 1474 O_____________ nhc_working_bt AL172020 46.6000 -33.0000 EX 50 982 -4 160 160 250 230 120 1012 250 40 10 107
2020248N12341 2020 66 NA NA PAULETTE 2020-09-17 21:00:00 ET 46.2100 -32.3969 PROVISIONAL 1532 1532 P_____________ AL172020 46.3750 -32.3180 EX 47 984 -4 150 150 245 225 1012 250 40 10 124
2020248N12341 2020 66 NA NA PAULETTE 2020-09-18 00:00:00 ET 45.8514 -31.8928 PROVISIONAL 1577 1577 O_____________ nhc_working_bt AL172020 46.0000 -31.8000 EX 45 986 -4 140 140 240 220 1012 250 40 11 147
2020248N12341 2020 66 NA NA PAULETTE 2020-09-18 03:00:00 ET 45.3192 -31.5571 PROVISIONAL 1616 1616 P_____________ AL172020 45.3895 -31.5101 EX 45 986 -4 140 140 240 220 1012 250 40 13 165
2020248N12341 2020 66 NA NA PAULETTE 2020-09-18 06:00:00 ET 44.6000 -31.4000 PROVISIONAL 1655 1655 O_____________ nhc_working_bt AL172020 44.6000 -31.4000 EX 45 986 -4 140 140 240 221 1012 250 40 16 175
2020248N12341 2020 66 NA NA PAULETTE 2020-09-18 09:00:00 ET 43.7410 -31.3800 PROVISIONAL 1690 1690 P_____________ AL172020 43.7299 -31.3868 EX 42 991 -4 220 210 1012 200 55 18 179
2020248N12341 2020 66 NA NA PAULETTE 2020-09-18 12:00:00 ET 42.8000 -31.4000 PROVISIONAL 1729 1729 O_____________ nhc_working_bt AL172020 42.8000 -31.4000 EX 40 997 -4 200 200 1012 150 70 18 178
2020248N12341 2020 66 NA NA PAULETTE 2020-09-18 15:00:00 ET 41.8954 -31.2990 PROVISIONAL 1781 1781 P_____________ AL172020 41.9075 -31.3068 EX 40 997 -4 200 200 1012 150 70 18 175
2020248N12341 2020 66 NA NA PAULETTE 2020-09-18 18:00:00 ET 41.0000 -31.2000 PROVISIONAL 1811 1811 O_____________ nhc_working_bt AL172020 41.0000 -31.2000 EX 40 997 -4 200 200 1012 150 70 18 177
2020248N12341 2020 66 NA NA PAULETTE 2020-09-18 21:00:00 ET 40.1058 -31.1935 PROVISIONAL 1838 1803 P_____________ AL172020 40.0125 -31.1351 EX 40 999 -4 160 1012 150 65 17 0
2020248N12341 2020 66 NA NA PAULETTE 2020-09-19 00:00:00 ET 39.2622 -31.2003 PROVISIONAL 1803 1755 O_____________ nhc_working_bt AL172020 39.1000 -31.1000 EX 40 1002 -4 120 1013 150 60 16 0
2020248N12341 2020 66 NA NA PAULETTE 2020-09-19 03:00:00 ET 38.5131 -31.2039 PROVISIONAL 1749 1696 P_____________ AL172020 38.4198 -31.1468 EX 40 1002 -4 120 1013 150 60 15 177
2020248N12341 2020 66 NA NA PAULETTE 2020-09-19 06:00:00 DS 37.8000 -31.1000 PROVISIONAL 1696 1625 O_____________ nhc_working_bt AL172020 37.8000 -31.1000 LO 40 1002 -3 120 1013 150 60 16 168
2020248N12341 2020 66 NA NA PAULETTE 2020-09-19 09:00:00 DS 36.9706 -30.7856 PROVISIONAL 1625 1554 P_____________ AL172020 36.9828 -30.7928 LO 40 1004 -3 120 1013 150 60 16 160
2020248N12341 2020 66 NA NA PAULETTE 2020-09-19 12:00:00 DS 36.3000 -30.4000 PROVISIONAL 1554 1514 O_____________ nhc_working_bt AL172020 36.3000 -30.4000 LO 40 1006 -3 120 1013 150 60 11 149
2020248N12341 2020 66 NA NA PAULETTE 2020-09-19 15:00:00 DS 36.0075 -30.0761 PROVISIONAL 1514 1485 P_____________ AL172020 36.0025 -30.0710 LO 37 1007 -3 120 1014 165 60 6 130
2020248N12341 2020 66 NA NA PAULETTE 2020-09-19 18:00:00 DS 35.9000 -29.8000 PROVISIONAL 1485 1458 O_____________ nhc_working_bt AL172020 35.9000 -29.8000 LO 35 1008 -3 120 1016 180 60 5 124
2020248N12341 2020 66 NA NA PAULETTE 2020-09-19 21:00:00 DS 35.7416 -29.5843 PROVISIONAL 1458 1437 P_____________ AL172020 35.7849 -29.6127 LO 35 1008 -3 105 1017 240 55 4 132
2020248N12341 2020 66 NA NA PAULETTE 2020-09-20 00:00:00 DS 35.6333 -29.4333 PROVISIONAL 1437 1429 O_____________ nhc_working_bt AL172020 35.7000 -29.5000 LO 35 1008 -3 80 90 1018 300 50 3 122
2020248N12341 2020 66 NA NA PAULETTE 2020-09-20 03:00:00 DS 35.6050 -29.3151 PROVISIONAL 1429 1429 P_____________ AL172020 35.6149 -29.4049 LO 35 1008 -3 80 90 1018 300 50 2 116
2020248N12341 2020 66 NA NA PAULETTE 2020-09-20 06:00:00 DS 35.5667 -29.2667 PROVISIONAL 1429 1418 O_____________ nhc_working_bt AL172020 35.5000 -29.4000 LO 35 1008 -3 80 90 1018 300 50 2 173
2020248N12341 2020 66 NA NA PAULETTE 2020-09-20 09:00:00 DS 35.4249 -29.2816 PROVISIONAL 1418 1412 P_____________ AL172020 35.3147 -29.4748 LO 35 1008 -3 80 90 1018 300 52 3 193
2020248N12341 2020 66 NA NA PAULETTE 2020-09-20 12:00:00 DS 35.2333 -29.3667 PROVISIONAL 1414 1409 O_____________ nhc_working_bt AL172020 35.1000 -29.7000 LO 35 1008 -3 80 90 1018 300 55 4 193
2020248N12341 2020 66 NA NA PAULETTE 2020-09-20 15:00:00 DS 35.0548 -29.3930 PROVISIONAL 1409 1404 P_____________ AL172020 34.9078 -30.1126 LO 35 1008 -3 80 90 1018 300 55 5 212
2020248N12341 2020 66 NA NA PAULETTE 2020-09-20 18:00:00 DS 34.8333 -29.6667 PROVISIONAL 1417 1417 O_____________ nhc_working_bt AL172020 34.7000 -30.6000 LO 35 1008 -3 80 90 1018 300 55 11 243
2020248N12341 2020 66 NA NA PAULETTE 2020-09-20 21:00:00 DS 34.5576 -30.5734 PROVISIONAL 1481 1477 P_____________ AL172020 34.4877 -31.0829 LO 35 1008 -3 90 1017 300 55 16 246
2020248N12341 2020 66 NA NA PAULETTE 2020-09-21 00:00:00 DS 34.2000 -31.4000 PROVISIONAL 1531 1524 O_____________ nhc_working_bt AL172020 34.2000 -31.4000 LO 35 1008 -3 80 90 1017 300 55 11 224
2020248N12341 2020 66 NA NA PAULETTE 2020-09-21 03:00:00 DS 33.7307 -31.5338 PROVISIONAL 1521 1480 P_____________ AL172020 33.7416 -31.4649 LO 35 1008 -3 80 90 1017 300 55 9 170
2020248N12341 2020 66 NA NA PAULETTE 2020-09-21 06:00:00 DS 33.3000 -31.2000 PROVISIONAL 1480 1425 O_____________ nhc_working_bt AL172020 33.3000 -31.2000 LO 35 1008 -3 80 90 1017 300 55 10 134
2020248N12341 2020 66 NA NA PAULETTE 2020-09-21 09:00:00 DS 33.0023 -30.6333 PROVISIONAL 1417 1351 P_____________ AL172020 33.0023 -30.6333 LO 35 1008 -3 80 90 1017 300 55 12 109
2020248N12341 2020 66 NA NA PAULETTE 2020-09-21 12:00:00 DS 32.9000 -29.8000 PROVISIONAL 1342 1268 O_____________ nhc_working_bt AL172020 32.9000 -29.8000 LO 35 1008 -3 80 90 1017 300 55 15 89
2020248N12341 2020 66 NA NA PAULETTE 2020-09-21 15:00:00 DS 33.0413 -28.8247 PROVISIONAL 1259 1195 P_____________ AL172020 33.0484 -28.8169 LO 37 1008 -3 75 1017 300 55 17 77
2020248N12341 2020 66 NA NA PAULETTE 2020-09-21 18:00:00 TS 33.3000 -27.8000 PROVISIONAL 1187 1125 O_____________ nhc_working_bt AL172020 33.3000 -27.8000 TS 40 1008 0 60 60 70 1017 300 55 45 16 77
2020248N12341 2020 66 NA NA PAULETTE 2020-09-21 21:00:00 TS 33.4036 -26.9827 PROVISIONAL 1125 1071 P_____________ AL172020 33.4036 -26.9827 TS 45 1006 0 45 65 65 1015 250 42 14 77
2020248N12341 2020 66 NA NA PAULETTE 2020-09-22 00:00:00 TS 33.6000 -26.2000 PROVISIONAL 1071 1033 O_____________ nhc_working_bt AL172020 33.6000 -26.2000 TS 50 1004 0 30 70 60 30 1014 200 30 60 16 64
2020248N12341 2020 66 NA NA PAULETTE 2020-09-22 03:00:00 TS 34.1079 -25.2805 PROVISIONAL 1033 1004 P_____________ AL172020 34.1079 -25.2805 TS 50 1003 0 30 70 60 30 1014 180 30 18 56
2020248N12341 2020 66 NA NA PAULETTE 2020-09-22 06:00:00 TS 34.6000 -24.4000 PROVISIONAL 1005 975 O_____________ nhc_working_bt AL172020 34.6000 -24.4000 TS 50 1002 0 30 70 60 30 1014 160 30 60 12 90 15 62
2020248N12341 2020 66 NA NA PAULETTE 2020-09-22 09:00:00 TS 34.7814 -23.7110 PROVISIONAL 975 938 P_____________ AL172020 34.7814 -23.7110 TS 42 1004 0 60 55 1014 160 30 11 79
2020248N12341 2020 66 NA NA PAULETTE 2020-09-22 12:00:00 TS 34.8000 -23.1000 PROVISIONAL 938 903 O_____________ nhc_working_bt AL172020 34.8000 -23.1000 TS 35 1006 0 50 50 1014 160 30 45 10 91
2020248N12341 2020 66 NA NA PAULETTE 2020-09-22 15:00:00 TS 34.7572 -22.4492 PROVISIONAL 897 856 P_____________ AL172020 34.7572 -22.4492 TS 35 1006 0 50 50 1014 160 30 11 95
2020248N12341 2020 66 NA NA PAULETTE 2020-09-22 18:00:00 TS 34.7000 -21.8000 PROVISIONAL 856 826 O_____________ nhc_working_bt AL172020 34.7000 -21.8000 TS 35 1006 0 50 50 1014 160 30 45 12 30 60 120 11 92
2020248N12341 2020 66 NA NA PAULETTE 2020-09-22 21:00:00 TS 34.7272 -21.1501 PROVISIONAL 826 802 P_____________ AL172020 34.7272 -21.1501 TS 35 1006 0 50 50 1013 160 30 11 85
2020248N12341 2020 66 NA NA PAULETTE 2020-09-23 00:00:00 DS 34.8000 -20.5000 PROVISIONAL 802 776 O_____________ nhc_working_bt AL172020 34.8000 -20.5000 LO 35 1006 -3 50 50 1013 160 30 45 11 83
2020248N12341 2020 66 NA NA PAULETTE 2020-09-23 03:00:00 DS 34.8624 -19.8344 PROVISIONAL 782 767 P_____________ AL172020 34.8624 -19.8344 LO 37 1006 -3 45 45 1013 160 27 11 79
2020248N12341 2020 66 NA NA PAULETTE 2020-09-23 06:00:00 DS 35.0000 -19.2000 PROVISIONAL 771 768 O_____________ nhc_working_bt AL172020 35.0000 -19.2000 LO 40 1006 -3 30 40 40 1013 160 25 11 68
2020248N12341 2020 66 NA NA PAULETTE 2020-09-23 09:00:00 DS 35.2697 -18.6203 PROVISIONAL 786 783 P_____________ AL172020 35.2697 -18.6203 LO 42 1003 -3 30 40 40 1013 160 22 11 56
2020248N12341 2020 66 NA NA PAULETTE 2020-09-23 12:00:00 DS 35.6000 -18.1000 PROVISIONAL 807 785 O_____________ nhc_working_bt AL172020 35.6000 -18.1000 LO 45 1001 -3 30 40 40 40 1013 160 20 10 51
2020248N12341 2020 66 NA NA PAULETTE 2020-09-23 15:00:00 DS 35.9103 -17.6353 PROVISIONAL 776 735 P_____________ AL172020 35.9103 -17.6353 LO 45 1001 -3 30 40 40 40 1013 160 20 9 51
2020248N12341 2020 66 NA NA PAULETTE 2020-09-23 18:00:00 DS 36.2000 -17.2000 PROVISIONAL 735 O_____________ nhc_working_bt AL172020 36.2000 -17.2000 LO 45 1001 -3 30 40 40 40 1013 160 20 9 51

About IBTrACS Database

This database is a web-friendly format of International Best Track Archive for Climate Stewardship (IBTrACS), a global best track data archive curated by NOAA dating back to 1842.

Updated: 2021-10-21